Time,TemperatureF,DewpointF,PressureIn,WindDirection,WindDirectionDegrees,WindSpeedMPH,WindSpeedGustMPH,Humidity,HourlyPrecipIn,Conditions,Clouds,dailyrainin,SoftwareType,DateUTC
2013-09-17 00:00:00,65.0,55.0,30.04,ESE,114,3.0,6.0,67,0.00,,,-99.99,,2013-09-17 06:00:00,
2013-09-17 00:42:00,65.0,55.0,30.04,ESE,114,3.0,6.0,67,0.00,,,-99.99,,2013-09-17 06:42:00,
2013-09-17 00:52:00,65.0,55.0,30.04,ESE,114,3.0,6.0,67,0.00,,,-99.99,,2013-09-17 06:52:00,
2013-09-17 01:00:00,68.0,55.0,30.03,SSE,160,5.0,8.0,62,0.00,,,-99.99,,2013-09-17 07:00:00,
2013-09-17 01:43:00,68.0,55.0,30.03,SSE,160,5.0,8.0,62,0.00,,,-99.99,,2013-09-17 07:43:00,
2013-09-17 01:52:00,68.0,55.0,30.03,SSE,160,5.0,8.0,62,0.00,,,-99.99,,2013-09-17 07:52:00,
2013-09-17 03:00:00,65.0,54.0,30.03,WSW,251,2.0,4.0,68,0.00,,,-99.99,,2013-09-17 09:00:00,
2013-09-17 03:43:00,65.0,54.0,30.03,WSW,251,2.0,4.0,68,0.00,,,-99.99,,2013-09-17 09:43:00,
2013-09-17 03:53:00,65.0,54.0,30.03,WSW,251,2.0,4.0,68,0.00,,,-99.99,,2013-09-17 09:53:00,
2013-09-17 04:00:00,64.0,54.0,30.02,SW,226,1.0,4.0,70,0.00,,,-99.99,,2013-09-17 10:00:00,
2013-09-17 04:42:00,64.0,54.0,30.02,SW,226,1.0,4.0,70,0.00,,,-99.99,,2013-09-17 10:42:00,
2013-09-17 04:53:00,64.0,54.0,30.02,SW,226,1.0,4.0,70,0.00,,,-99.99,,2013-09-17 10:53:00,
2013-09-17 05:00:00,63.0,55.0,30.02,SSW,193,1.0,3.0,75,0.00,,,-99.99,,2013-09-17 11:00:00,
2013-09-17 05:43:00,63.0,55.0,30.02,SSW,193,1.0,3.0,75,0.00,,,-99.99,,2013-09-17 11:43:00,
2013-09-17 05:52:00,63.0,55.0,30.02,SSW,193,1.0,3.0,75,0.00,,,-99.99,,2013-09-17 11:52:00,
2013-09-17 06:00:00,63.0,55.0,30.01,SSW,207,1.0,4.0,76,0.00,,,-99.99,,2013-09-17 12:00:00,
2013-09-17 06:42:00,63.0,55.0,30.01,SSW,207,1.0,4.0,76,0.00,,,-99.99,,2013-09-17 12:42:00,
2013-09-17 06:52:00,63.0,55.0,30.01,SSW,207,1.0,4.0,76,0.00,,,-99.99,,2013-09-17 12:52:00,
2013-09-17 07:00:00,62.0,55.0,30.01,South,180,1.0,3.0,77,0.00,,,-99.99,,2013-09-17 13:00:00,
2013-09-17 07:42:00,62.0,55.0,30.01,South,180,1.0,3.0,77,0.00,,,-99.99,,2013-09-17 13:42:00,
2013-09-17 07:52:00,62.0,55.0,30.01,South,180,1.0,3.0,77,0.00,,,-99.99,,2013-09-17 13:52:00,
2013-09-17 08:00:00,62.0,56.0,30.03,SW,215,1.0,3.0,80,0.00,,,-99.99,,2013-09-17 14:00:00,
2013-09-17 08:42:00,62.0,56.0,30.03,SW,215,1.0,3.0,80,0.00,,,-99.99,,2013-09-17 14:42:00,
2013-09-17 08:52:00,62.0,56.0,30.03,SW,215,1.0,3.0,80,0.00,,,-99.99,,2013-09-17 14:52:00,
2013-09-17 09:00:00,67.0,56.0,30.03,NNW,343,1.0,5.0,67,0.00,,,-99.99,,2013-09-17 15:00:00,
2013-09-17 09:44:00,67.0,56.0,30.03,NNW,343,1.0,5.0,67,0.00,,,-99.99,,2013-09-17 15:44:00,
2013-09-17 09:53:00,67.0,56.0,30.03,NNW,343,1.0,5.0,67,0.00,,,-99.99,,2013-09-17 15:53:00,
2013-09-17 10:00:00,68.0,56.0,30.03,NW,326,2.0,7.0,64,0.00,,,-99.99,,2013-09-17 16:00:00,
2013-09-17 10:42:00,68.0,56.0,30.03,NW,326,2.0,7.0,64,0.00,,,-99.99,,2013-09-17 16:42:00,
2013-09-17 10:54:00,68.0,56.0,30.03,NW,326,2.0,7.0,64,0.00,,,-99.99,,2013-09-17 16:54:00,
2013-09-17 12:00:00,71.0,59.0,30.00,SE,146,8.0,18.0,65,0.01,,,-99.99,,2013-09-17 18:00:00,
2013-09-17 12:42:00,71.0,59.0,30.00,SE,146,8.0,18.0,65,0.01,,,-99.99,,2013-09-17 18:42:00,
2013-09-17 12:52:00,71.0,59.0,30.00,SE,146,8.0,18.0,65,0.01,,,-99.99,,2013-09-17 18:52:00,
2013-09-17 13:00:00,70.0,59.0,29.99,SSE,159,8.0,17.0,68,0.01,,,-99.99,,2013-09-17 19:00:00,
2013-09-17 13:42:00,70.0,59.0,29.99,SSE,159,8.0,17.0,68,0.01,,,-99.99,,2013-09-17 19:42:00,
2013-09-17 13:52:00,70.0,59.0,29.99,SSE,159,8.0,17.0,68,0.01,,,-99.99,,2013-09-17 19:52:00,
2013-09-17 15:00:00,81.0,58.0,29.91,SE,140,7.0,16.0,45,0.00,,,-99.99,,2013-09-17 21:00:00,
2013-09-17 15:44:00,81.0,58.0,29.91,SE,140,7.0,16.0,45,0.00,,,-99.99,,2013-09-17 21:44:00,
2013-09-17 15:54:00,81.0,58.0,29.91,SE,140,7.0,16.0,45,0.00,,,-99.99,,2013-09-17 21:54:00,
2013-09-17 16:00:00,80.0,58.0,29.89,SE,124,4.0,15.0,47,0.00,,,-99.99,,2013-09-17 22:00:00,
2013-09-17 16:44:00,80.0,58.0,29.89,SE,124,4.0,15.0,47,0.00,,,-99.99,,2013-09-17 22:44:00,
2013-09-17 16:53:00,80.0,58.0,29.89,SE,124,4.0,15.0,47,0.00,,,-99.99,,2013-09-17 22:53:00,
2013-09-17 17:00:00,83.0,59.0,29.85,SE,133,5.0,14.0,44,0.00,,,-99.99,,2013-09-17 23:00:00,
2013-09-17 17:42:00,83.0,59.0,29.85,SE,133,5.0,14.0,44,0.00,,,-99.99,,2013-09-17 23:42:00,
2013-09-17 17:52:00,83.0,59.0,29.85,SE,133,5.0,14.0,44,0.00,,,-99.99,,2013-09-17 23:52:00,
2013-09-17 18:00:00,83.0,56.0,29.83,SE,145,7.0,16.0,40,0.00,,,-99.99,,2013-09-18 00:00:00,
2013-09-17 18:42:00,83.0,56.0,29.83,SE,145,7.0,16.0,40,0.00,,,-99.99,,2013-09-18 00:42:00,
2013-09-17 18:52:00,83.0,56.0,29.83,SE,145,7.0,16.0,40,0.00,,,-99.99,,2013-09-18 00:52:00,
2013-09-17 19:00:00,81.0,54.0,29.81,SSE,149,9.0,20.0,40,0.00,,,-99.99,,2013-09-18 01:00:00,
2013-09-17 19:42:00,81.0,54.0,29.81,SSE,149,9.0,20.0,40,0.00,,,-99.99,,2013-09-18 01:42:00,
2013-09-17 19:52:00,81.0,54.0,29.81,SSE,149,9.0,20.0,40,0.00,,,-99.99,,2013-09-18 01:52:00,
2013-09-17 21:00:00,78.0,52.0,29.81,SSE,156,13.0,20.0,40,0.00,,,-99.99,,2013-09-18 03:00:00,
2013-09-17 21:44:00,78.0,52.0,29.81,SSE,156,13.0,20.0,40,0.00,,,-99.99,,2013-09-18 03:44:00,
2013-09-17 21:55:00,78.0,52.0,29.81,SSE,156,13.0,20.0,40,0.00,,,-99.99,,2013-09-18 03:55:00,
2013-09-17 22:00:00,77.0,52.0,29.81,SE,145,12.0,20.0,41,0.00,,,-99.99,,2013-09-18 04:00:00,
2013-09-17 22:44:00,77.0,52.0,29.81,SE,145,12.0,20.0,41,0.00,,,-99.99,,2013-09-18 04:44:00,
2013-09-17 22:54:00,77.0,52.0,29.81,SE,145,12.0,20.0,41,0.00,,,-99.99,,2013-09-18 04:54:00,
2013-09-17 23:00:00,77.0,52.0,29.80,SSE,155,11.0,19.0,41,0.00,,,-99.99,,2013-09-18 05:00:00,
2013-09-17 23:43:00,77.0,52.0,29.80,SSE,155,11.0,19.0,41,0.00,,,-99.99,,2013-09-18 05:43:00,
2013-09-17 23:53:00,77.0,52.0,29.80,SSE,155,11.0,19.0,41,0.00,,,-99.99,,2013-09-18 05:53:00,